sensor_id;sensor_type;location;lat;lon;timestamp;pressure;altitude;pressure_sealevel;temperature;humidity
51359;BME280;37448;51.588;7.248;2024-01-30T00:00:48;102048.41;;;5.70;100.00
51359;BME280;37448;51.588;7.248;2024-01-30T00:02:48;102050.94;;;5.69;100.00
51359;BME280;37448;51.588;7.248;2024-01-30T00:04:49;102051.75;;;5.66;100.00
51359;BME280;37448;51.588;7.248;2024-01-30T00:06:51;102049.94;;;5.62;100.00
51359;BME280;37448;51.588;7.248;2024-01-30T00:08:51;102047.25;;;5.59;100.00
51359;BME280;37448;51.588;7.248;2024-01-30T00:10:51;102048.81;;;5.52;100.00
51359;BME280;37448;51.588;7.248;2024-01-30T00:12:52;102050.41;;;5.47;99.73
51359;BME280;37448;51.588;7.248;2024-01-30T00:14:52;102050.28;;;5.44;99.71
51359;BME280;37448;51.588;7.248;2024-01-30T00:16:53;102046.69;;;5.37;100.00
51359;BME280;37448;51.588;7.248;2024-01-30T00:18:54;102048.25;;;5.32;100.00
51359;BME280;37448;51.588;7.248;2024-01-30T00:20:54;102049.00;;;5.26;100.00
51359;BME280;37448;51.588;7.248;2024-01-30T00:22:54;102041.03;;;5.20;100.00
51359;BME280;37448;51.588;7.248;2024-01-30T00:24:55;102042.63;;;5.15;99.54
51359;BME280;37448;51.588;7.248;2024-01-30T00:26:55;102039.06;;;5.10;100.00
51359;BME280;37448;51.588;7.248;2024-01-30T00:28:56;102043.22;;;5.05;100.00
51359;BME280;37448;51.588;7.248;2024-01-30T00:30:56;102038.81;;;5.00;99.67
51359;BME280;37448;51.588;7.248;2024-01-30T00:32:56;102042.09;;;4.96;99.93
51359;BME280;37448;51.588;7.248;2024-01-30T00:34:57;102030.81;;;4.93;100.00
51359;BME280;37448;51.588;7.248;2024-01-30T00:36:57;102035.03;;;4.89;100.00
51359;BME280;37448;51.588;7.248;2024-01-30T00:38:57;102035.19;;;4.95;100.00
51359;BME280;37448;51.588;7.248;2024-01-30T00:40:58;102026.78;;;5.02;100.00
51359;BME280;37448;51.588;7.248;2024-01-30T00:42:58;102036.41;;;5.08;100.00
51359;BME280;37448;51.588;7.248;2024-01-30T00:44:59;102024.59;;;5.16;100.00
51359;BME280;37448;51.588;7.248;2024-01-30T00:46:59;102026.34;;;5.19;100.00
51359;BME280;37448;51.588;7.248;2024-01-30T00:48:59;102032.56;;;5.24;100.00
51359;BME280;37448;51.588;7.248;2024-01-30T00:51:00;102028.31;;;5.28;100.00
51359;BME280;37448;51.588;7.248;2024-01-30T00:53:00;102023.22;;;5.29;100.00
51359;BME280;37448;51.588;7.248;2024-01-30T00:55:01;102025.88;;;5.33;100.00
51359;BME280;37448;51.588;7.248;2024-01-30T00:57:01;102030.28;;;5.37;100.00
51359;BME280;37448;51.588;7.248;2024-01-30T00:59:02;102031.19;;;5.37;100.00
51359;BME280;37448;51.588;7.248;2024-01-30T01:01:02;102034.53;;;5.35;100.00
51359;BME280;37448;51.588;7.248;2024-01-30T01:03:03;102028.50;;;5.34;100.00
51359;BME280;37448;51.588;7.248;2024-01-30T01:05:03;102031.81;;;5.30;100.00
51359;BME280;37448;51.588;7.248;2024-01-30T01:07:05;102030.06;;;5.27;100.00
51359;BME280;37448;51.588;7.248;2024-01-30T01:09:05;102027.47;;;5.27;100.00
51359;BME280;37448;51.588;7.248;2024-01-30T01:11:05;102025.63;;;5.23;100.00
51359;BME280;37448;51.588;7.248;2024-01-30T01:13:06;102027.28;;;5.21;100.00
51359;BME280;37448;51.588;7.248;2024-01-30T01:15:06;102029.78;;;5.18;100.00
51359;BME280;37448;51.588;7.248;2024-01-30T01:17:09;102031.44;;;5.14;100.00
51359;BME280;37448;51.588;7.248;2024-01-30T01:19:10;102022.69;;;5.11;100.00
51359;BME280;37448;51.588;7.248;2024-01-30T01:21:10;102025.22;;;5.08;100.00
51359;BME280;37448;51.588;7.248;2024-01-30T01:23:11;102020.78;;;5.04;100.00
51359;BME280;37448;51.588;7.248;2024-01-30T01:25:11;102025.03;;;5.01;100.00
51359;BME280;37448;51.588;7.248;2024-01-30T01:27:11;102023.19;;;4.97;100.00
51359;BME280;37448;51.588;7.248;2024-01-30T01:29:12;102028.25;;;4.94;100.00
51359;BME280;37448;51.588;7.248;2024-01-30T01:31:12;102025.66;;;4.93;100.00
51359;BME280;37448;51.588;7.248;2024-01-30T01:33:12;102028.09;;;4.88;100.00
51359;BME280;37448;51.588;7.248;2024-01-30T01:35:14;102029.78;;;4.86;100.00
51359;BME280;37448;51.588;7.248;2024-01-30T01:37:14;102029.69;;;4.83;100.00
51359;BME280;37448;51.588;7.248;2024-01-30T01:39:15;102033.03;;;4.79;100.00
51359;BME280;37448;51.588;7.248;2024-01-30T01:41:15;102022.59;;;4.76;100.00
51359;BME280;37448;51.588;7.248;2024-01-30T01:43:16;102026.81;;;4.73;100.00
51359;BME280;37448;51.588;7.248;2024-01-30T01:45:16;102018.97;;;4.70;100.00
51359;BME280;37448;51.588;7.248;2024-01-30T01:47:17;102018.03;;;4.67;100.00
51359;BME280;37448;51.588;7.248;2024-01-30T01:49:17;102025.72;;;4.65;100.00
51359;BME280;37448;51.588;7.248;2024-01-30T01:51:19;102015.31;;;4.62;100.00
51359;BME280;37448;51.588;7.248;2024-01-30T01:53:20;102017.88;;;4.62;100.00
51359;BME280;37448;51.588;7.248;2024-01-30T01:55:21;102014.31;;;4.58;100.00
51359;BME280;37448;51.588;7.248;2024-01-30T01:57:22;102012.56;;;4.56;100.00
51359;BME280;37448;51.588;7.248;2024-01-30T01:59:23;102009.03;;;4.54;100.00
51359;BME280;37448;51.588;7.248;2024-01-30T02:01:25;102007.28;;;4.53;100.00
51359;BME280;37448;51.588;7.248;2024-01-30T02:03:26;102011.53;;;4.51;100.00
51359;BME280;37448;51.588;7.248;2024-01-30T02:05:26;102009.78;;;4.50;100.00
51359;BME280;37448;51.588;7.248;2024-01-30T02:07:27;102000.25;;;4.49;100.00
51359;BME280;37448;51.588;7.248;2024-01-30T02:09:28;101999.34;;;4.47;100.00
51359;BME280;37448;51.588;7.248;2024-01-30T02:11:28;102002.75;;;4.45;100.00
51359;BME280;37448;51.588;7.248;2024-01-30T02:13:29;102001.00;;;4.44;100.00
51359;BME280;37448;51.588;7.248;2024-01-30T02:15:29;101994.91;;;4.42;100.00
51359;BME280;37448;51.588;7.248;2024-01-30T02:17:29;101998.41;;;4.43;100.00
51359;BME280;37448;51.588;7.248;2024-01-30T02:19:30;101995.75;;;4.41;100.00
51359;BME280;37448;51.588;7.248;2024-01-30T02:21:30;102000.91;;;4.41;100.00
51359;BME280;37448;51.588;7.248;2024-01-30T02:23:32;101991.41;;;4.39;100.00
51359;BME280;37448;51.588;7.248;2024-01-30T02:25:38;101993.91;;;4.37;100.00
51359;BME280;37448;51.588;7.248;2024-01-30T02:27:38;102002.50;;;4.36;100.00
51359;BME280;37448;51.588;7.248;2024-01-30T02:29:39;101990.41;;;4.35;100.00
51359;BME280;37448;51.588;7.248;2024-01-30T02:31:39;101989.53;;;4.35;100.00
51359;BME280;37448;51.588;7.248;2024-01-30T02:33:39;101987.75;;;4.32;100.00
51359;BME280;37448;51.588;7.248;2024-01-30T02:35:40;101986.84;;;4.32;100.00
51359;BME280;37448;51.588;7.248;2024-01-30T02:37:40;101986.81;;;4.30;100.00
51359;BME280;37448;51.588;7.248;2024-01-30T02:39:41;101981.59;;;4.28;100.00
51359;BME280;37448;51.588;7.248;2024-01-30T02:41:41;101980.69;;;4.26;100.00
51359;BME280;37448;51.588;7.248;2024-01-30T02:43:41;101978.03;;;4.25;100.00
51359;BME280;37448;51.588;7.248;2024-01-30T02:45:42;101977.13;;;4.23;100.00
51359;BME280;37448;51.588;7.248;2024-01-30T02:47:42;101972.75;;;4.20;100.00
51359;BME280;37448;51.588;7.248;2024-01-30T02:49:43;101971.84;;;4.18;100.00
51359;BME280;37448;51.588;7.248;2024-01-30T02:51:43;101969.19;;;4.16;100.00
51359;BME280;37448;51.588;7.248;2024-01-30T02:53:43;101966.53;;;4.13;100.00
51359;BME280;37448;51.588;7.248;2024-01-30T02:55:44;101967.34;;;4.12;100.00
51359;BME280;37448;51.588;7.248;2024-01-30T02:57:44;101966.44;;;4.10;100.00
51359;BME280;37448;51.588;7.248;2024-01-30T02:59:44;101962.09;;;4.09;100.00
51359;BME280;37448;51.588;7.248;2024-01-30T03:01:45;101959.47;;;4.08;100.00
51359;BME280;37448;51.588;7.248;2024-01-30T03:03:46;101953.44;;;4.07;100.00
51359;BME280;37448;51.588;7.248;2024-01-30T03:05:48;101955.13;;;4.07;100.00
51359;BME280;37448;51.588;7.248;2024-01-30T03:07:48;101956.84;;;4.06;100.00
51359;BME280;37448;51.588;7.248;2024-01-30T03:09:49;101951.69;;;4.06;100.00
51359;BME280;37448;51.588;7.248;2024-01-30T03:11:49;101952.53;;;4.07;100.00
51359;BME280;37448;51.588;7.248;2024-01-30T03:13:50;101955.97;;;4.06;100.00
51359;BME280;37448;51.588;7.248;2024-01-30T03:15:50;101943.06;;;4.06;100.00
51359;BME280;37448;51.588;7.248;2024-01-30T03:17:50;101944.78;;;4.05;100.00
51359;BME280;37448;51.588;7.248;2024-01-30T03:19:51;101943.03;;;4.04;100.00
51359;BME280;37448;51.588;7.248;2024-01-30T03:21:51;101943.03;;;4.04;100.00
51359;BME280;37448;51.588;7.248;2024-01-30T03:23:52;101939.53;;;4.02;100.00
51359;BME280;37448;51.588;7.248;2024-01-30T03:25:52;101944.69;;;4.02;100.00
51359;BME280;37448;51.588;7.248;2024-01-30T03:27:53;101942.91;;;4.01;100.00
51359;BME280;37448;51.588;7.248;2024-01-30T03:29:53;101942.91;;;4.01;100.00
51359;BME280;37448;51.588;7.248;2024-01-30T03:31:53;101940.31;;;4.01;100.00
51359;BME280;37448;51.588;7.248;2024-01-30T03:33:54;101939.47;;;4.00;100.00
51359;BME280;37448;51.588;7.248;2024-01-30T03:35:55;101946.31;;;4.00;100.00
51359;BME280;37448;51.588;7.248;2024-01-30T03:37:56;101940.28;;;3.99;100.00
51359;BME280;37448;51.588;7.248;2024-01-30T03:39:56;101935.97;;;4.00;100.00
51359;BME280;37448;51.588;7.248;2024-01-30T03:41:57;101940.28;;;3.99;100.00
51359;BME280;37448;51.588;7.248;2024-01-30T03:43:57;101927.31;;;3.98;100.00
51359;BME280;37448;51.588;7.248;2024-01-30T03:45:59;101930.72;;;3.97;100.00
51359;BME280;37448;51.588;7.248;2024-01-30T03:47:59;101923.81;;;3.96;100.00
51359;BME280;37448;51.588;7.248;2024-01-30T03:49:59;101929.88;;;3.96;100.00
51359;BME280;37448;51.588;7.248;2024-01-30T03:52:00;101927.22;;;3.95;100.00
51359;BME280;37448;51.588;7.248;2024-01-30T03:54:00;101924.66;;;3.95;100.00
51359;BME280;37448;51.588;7.248;2024-01-30T03:56:01;101925.47;;;3.94;100.00
51359;BME280;37448;51.588;7.248;2024-01-30T03:58:01;101929.78;;;3.93;100.00
51359;BME280;37448;51.588;7.248;2024-01-30T04:00:02;101922.88;;;3.92;100.00
51359;BME280;37448;51.588;7.248;2024-01-30T04:02:12;101919.41;;;3.92;100.00
51359;BME280;37448;51.588;7.248;2024-01-30T04:04:12;101925.41;;;3.91;100.00
51359;BME280;37448;51.588;7.248;2024-01-30T04:06:13;101915.91;;;3.90;100.00
51359;BME280;37448;51.588;7.248;2024-01-30T04:08:13;101918.47;;;3.90;100.00
51359;BME280;37448;51.588;7.248;2024-01-30T04:10:14;101916.72;;;3.89;100.00
51359;BME280;37448;51.588;7.248;2024-01-30T04:12:14;101914.16;;;3.89;100.00
51359;BME280;37448;51.588;7.248;2024-01-30T04:14:14;101911.50;;;3.87;100.00
51359;BME280;37448;51.588;7.248;2024-01-30T04:16:21;101911.47;;;3.85;100.00
51359;BME280;37448;51.588;7.248;2024-01-30T04:18:22;101906.25;;;3.84;100.00
51359;BME280;37448;51.588;7.248;2024-01-30T04:20:22;101910.56;;;3.83;100.00
51359;BME280;37448;51.588;7.248;2024-01-30T04:22:23;101906.22;;;3.82;100.00
51359;BME280;37448;51.588;7.248;2024-01-30T04:24:23;101908.75;;;3.81;100.00
51359;BME280;37448;51.588;7.248;2024-01-30T04:26:23;101903.59;;;3.81;100.00
51359;BME280;37448;51.588;7.248;2024-01-30T04:28:24;101906.97;;;3.78;100.00
51359;BME280;37448;51.588;7.248;2024-01-30T04:30:24;101899.22;;;3.78;100.00
51359;BME280;37448;51.588;7.248;2024-01-30T04:32:24;101901.81;;;3.78;100.00
51359;BME280;37448;51.588;7.248;2024-01-30T04:34:25;101892.28;;;3.77;100.00
51359;BME280;37448;51.588;7.248;2024-01-30T04:36:25;101895.69;;;3.76;100.00
51359;BME280;37448;51.588;7.248;2024-01-30T04:38:25;101892.25;;;3.76;100.00
51359;BME280;37448;51.588;7.248;2024-01-30T04:40:26;101895.69;;;3.76;100.00
51359;BME280;37448;51.588;7.248;2024-01-30T04:42:26;101897.44;;;3.77;100.00
51359;BME280;37448;51.588;7.248;2024-01-30T04:44:26;101889.09;;;3.84;100.00
51359;BME280;37448;51.588;7.248;2024-01-30T04:46:27;101891.94;;;3.94;100.00
51359;BME280;37448;51.588;7.248;2024-01-30T04:48:27;101896.34;;;3.98;100.00
51359;BME280;37448;51.588;7.248;2024-01-30T04:50:27;101893.06;;;4.02;100.00
51359;BME280;37448;51.588;7.248;2024-01-30T04:52:28;101896.66;;;4.07;100.00
51359;BME280;37448;51.588;7.248;2024-01-30T04:54:28;101900.38;;;4.17;100.00
51359;BME280;37448;51.588;7.248;2024-01-30T04:56:28;101897.91;;;4.22;100.00
51359;BME280;37448;51.588;7.248;2024-01-30T04:58:29;101897.19;;;4.26;100.00
51359;BME280;37448;51.588;7.248;2024-01-30T05:00:29;101896.38;;;4.28;100.00
51359;BME280;37448;51.588;7.248;2024-01-30T05:02:30;101903.38;;;4.33;100.00
51359;BME280;37448;51.588;7.248;2024-01-30T05:04:30;101897.44;;;4.35;100.00
51359;BME280;37448;51.588;7.248;2024-01-30T05:06:30;101897.47;;;4.37;100.00
51359;BME280;37448;51.588;7.248;2024-01-30T05:08:31;101902.69;;;4.38;100.00
51359;BME280;37448;51.588;7.248;2024-01-30T05:10:31;101895.88;;;4.40;100.00
51359;BME280;37448;51.588;7.248;2024-01-30T05:12:32;101895.88;;;4.40;100.00
51359;BME280;37448;51.588;7.248;2024-01-30T05:14:32;101893.28;;;4.40;100.00
51359;BME280;37448;51.588;7.248;2024-01-30T05:16:32;101893.25;;;4.39;100.00
51359;BME280;37448;51.588;7.248;2024-01-30T05:18:33;101898.38;;;4.37;100.00
51359;BME280;37448;51.588;7.248;2024-01-30T05:20:33;101894.09;;;4.38;100.00
51359;BME280;37448;51.588;7.248;2024-01-30T05:22:34;101895.69;;;4.34;100.00
51359;BME280;37448;51.588;7.248;2024-01-30T05:24:34;101897.38;;;4.32;100.00
51359;BME280;37448;51.588;7.248;2024-01-30T05:26:35;101890.44;;;4.31;100.00
51359;BME280;37448;51.588;7.248;2024-01-30T05:28:35;101897.28;;;4.29;100.00
51359;BME280;37448;51.588;7.248;2024-01-30T05:30:36;101892.13;;;4.29;100.00
51359;BME280;37448;51.588;7.248;2024-01-30T05:32:36;101890.44;;;4.31;100.00
51359;BME280;37448;51.588;7.248;2024-01-30T05:34:38;101888.69;;;4.30;100.00
51359;BME280;37448;51.588;7.248;2024-01-30T05:36:39;101888.69;;;4.30;100.00
51359;BME280;37448;51.588;7.248;2024-01-30T05:38:39;101895.63;;;4.31;100.00
51359;BME280;37448;51.588;7.248;2024-01-30T05:40:39;101890.53;;;4.34;100.00
51359;BME280;37448;51.588;7.248;2024-01-30T05:42:40;101900.06;;;4.37;100.00
51359;BME280;37448;51.588;7.248;2024-01-30T05:44:40;101890.63;;;4.37;100.00
51359;BME280;37448;51.588;7.248;2024-01-30T05:46:41;101899.41;;;4.44;100.00
51359;BME280;37448;51.588;7.248;2024-01-30T05:48:42;101895.16;;;4.46;100.00
51359;BME280;37448;51.588;7.248;2024-01-30T05:50:42;101896.03;;;4.47;100.00
51359;BME280;37448;51.588;7.248;2024-01-30T05:52:42;101887.44;;;4.48;100.00
51359;BME280;37448;51.588;7.248;2024-01-30T05:54:43;101888.41;;;4.51;100.00
51359;BME280;37448;51.588;7.248;2024-01-30T05:56:43;101885.06;;;4.54;100.00
51359;BME280;37448;51.588;7.248;2024-01-30T05:58:44;101884.25;;;4.56;100.00
51359;BME280;37448;51.588;7.248;2024-01-30T06:00:44;101891.13;;;4.56;100.00
51359;BME280;37448;51.588;7.248;2024-01-30T06:02:44;101888.66;;;4.61;100.00
51359;BME280;37448;51.588;7.248;2024-01-30T06:04:45;101884.31;;;4.58;100.00
51359;BME280;37448;51.588;7.248;2024-01-30T06:06:46;101896.38;;;4.59;100.00
51359;BME280;37448;51.588;7.248;2024-01-30T06:08:46;101890.41;;;4.62;100.00
51359;BME280;37448;51.588;7.248;2024-01-30T06:10:46;101892.25;;;4.66;100.00
51359;BME280;37448;51.588;7.248;2024-01-30T06:12:48;101887.03;;;4.64;100.00
51359;BME280;37448;51.588;7.248;2024-01-30T06:14:48;101888.84;;;4.67;100.00
51359;BME280;37448;51.588;7.248;2024-01-30T06:16:49;101896.81;;;4.75;100.00
51359;BME280;37448;51.588;7.248;2024-01-30T06:18:49;101898.50;;;4.74;100.00
51359;BME280;37448;51.588;7.248;2024-01-30T06:20:49;101894.16;;;4.73;100.00
51359;BME280;37448;51.588;7.248;2024-01-30T06:22:50;101895.09;;;4.75;100.00
51359;BME280;37448;51.588;7.248;2024-01-30T06:24:50;101892.50;;;4.75;100.00
51359;BME280;37448;51.588;7.248;2024-01-30T06:26:51;101890.88;;;4.79;100.00
51359;BME280;37448;51.588;7.248;2024-01-30T06:28:51;101885.72;;;4.79;100.00
51359;BME280;37448;51.588;7.248;2024-01-30T06:30:51;101891.81;;;4.81;100.00
51359;BME280;37448;51.588;7.248;2024-01-30T06:32:52;101891.81;;;4.81;100.00
51359;BME280;37448;51.588;7.248;2024-01-30T06:34:52;101888.38;;;4.82;100.00
51359;BME280;37448;51.588;7.248;2024-01-30T06:36:53;101885.81;;;4.83;100.00
51359;BME280;37448;51.588;7.248;2024-01-30T06:38:53;101883.28;;;4.85;100.00
51359;BME280;37448;51.588;7.248;2024-01-30T06:40:53;101889.38;;;4.87;100.00
51359;BME280;37448;51.588;7.248;2024-01-30T06:42:54;101893.69;;;4.88;100.00
51359;BME280;37448;51.588;7.248;2024-01-30T06:44:54;101886.84;;;4.90;100.00
51359;BME280;37448;51.588;7.248;2024-01-30T06:46:54;101887.75;;;4.91;100.00
51359;BME280;37448;51.588;7.248;2024-01-30T06:48:55;101886.03;;;4.91;100.00
51359;BME280;37448;51.588;7.248;2024-01-30T06:50:56;101891.25;;;4.94;100.00
51359;BME280;37448;51.588;7.248;2024-01-30T06:52:57;101886.94;;;4.93;100.00
51359;BME280;37448;51.588;7.248;2024-01-30T06:54:58;101886.09;;;4.94;100.00
51359;BME280;37448;51.588;7.248;2024-01-30T06:56:58;101881.84;;;4.96;100.00
51359;BME280;37448;51.588;7.248;2024-01-30T06:59:00;101884.53;;;4.99;100.00
51359;BME280;37448;51.588;7.248;2024-01-30T07:01:00;101880.28;;;5.01;100.00
51359;BME280;37448;51.588;7.248;2024-01-30T07:03:01;101881.28;;;5.08;100.00
51359;BME280;37448;51.588;7.248;2024-01-30T07:05:01;101877.06;;;5.12;100.00
51359;BME280;37448;51.588;7.248;2024-01-30T07:07:01;101881.47;;;5.16;100.00
51359;BME280;37448;51.588;7.248;2024-01-30T07:09:02;101887.56;;;5.18;100.00
51359;BME280;37448;51.588;7.248;2024-01-30T07:11:03;101887.63;;;5.21;100.00
51359;BME280;37448;51.588;7.248;2024-01-30T07:13:04;101886.78;;;5.21;100.00
51359;BME280;37448;51.588;7.248;2024-01-30T07:15:06;101885.03;;;5.20;100.00
51359;BME280;37448;51.588;7.248;2024-01-30T07:17:08;101894.47;;;5.19;100.00
51359;BME280;37448;51.588;7.248;2024-01-30T07:19:09;101902.25;;;5.19;100.00
51359;BME280;37448;51.588;7.248;2024-01-30T07:21:09;101897.88;;;5.16;100.00
51359;BME280;37448;51.588;7.248;2024-01-30T07:23:10;101901.25;;;5.14;100.00
51359;BME280;37448;51.588;7.248;2024-01-30T07:25:14;101901.25;;;5.14;100.00
51359;BME280;37448;51.588;7.248;2024-01-30T07:27:15;101904.69;;;5.13;100.00
51359;BME280;37448;51.588;7.248;2024-01-30T07:29:17;101912.34;;;5.10;100.00
51359;BME280;37448;51.588;7.248;2024-01-30T07:31:18;101912.34;;;5.10;100.00
51359;BME280;37448;51.588;7.248;2024-01-30T07:33:20;101916.63;;;5.08;100.00
51359;BME280;37448;51.588;7.248;2024-01-30T07:35:21;101916.63;;;5.08;100.00
51359;BME280;37448;51.588;7.248;2024-01-30T07:37:21;101922.66;;;5.08;100.00
51359;BME280;37448;51.588;7.248;2024-01-30T07:39:21;101921.78;;;5.08;100.00
51359;BME280;37448;51.588;7.248;2024-01-30T07:41:22;101908.03;;;5.09;100.00
51359;BME280;37448;51.588;7.248;2024-01-30T07:43:23;101913.25;;;5.10;100.00
51359;BME280;37448;51.588;7.248;2024-01-30T07:45:23;101905.50;;;5.12;100.00
51359;BME280;37448;51.588;7.248;2024-01-30T07:47:24;101906.41;;;5.14;100.00
51359;BME280;37448;51.588;7.248;2024-01-30T07:49:25;101908.25;;;5.18;100.00
51359;BME280;37448;51.588;7.248;2024-01-30T07:51:25;101916.06;;;5.21;100.00
51359;BME280;37448;51.588;7.248;2024-01-30T07:53:26;101908.44;;;5.24;100.00
51359;BME280;37448;51.588;7.248;2024-01-30T07:55:26;101916.31;;;5.30;100.00
51359;BME280;37448;51.588;7.248;2024-01-30T07:57:31;101912.06;;;5.33;100.00
51359;BME280;37448;51.588;7.248;2024-01-30T07:59:32;101913.81;;;5.34;100.00
51359;BME280;37448;51.588;7.248;2024-01-30T08:01:32;101916.53;;;5.38;100.00
51359;BME280;37448;51.588;7.248;2024-01-30T08:03:33;101914.03;;;5.43;100.00
51359;BME280;37448;51.588;7.248;2024-01-30T08:05:34;101929.66;;;5.48;100.00
51359;BME280;37448;51.588;7.248;2024-01-30T08:07:34;101929.78;;;5.52;100.00
51359;BME280;37448;51.588;7.248;2024-01-30T08:09:35;101935.03;;;5.55;100.00
51359;BME280;37448;51.588;7.248;2024-01-30T08:11:35;101931.81;;;5.66;100.00
51359;BME280;37448;51.588;7.248;2024-01-30T08:13:36;101942.25;;;5.69;100.00
51359;BME280;37448;51.588;7.248;2024-01-30T08:15:36;101939.00;;;5.78;100.00
51359;BME280;37448;51.588;7.248;2024-01-30T08:17:36;101938.38;;;5.88;100.00
51359;BME280;37448;51.588;7.248;2024-01-30T08:19:37;101942.81;;;5.94;100.00
51359;BME280;37448;51.588;7.248;2024-01-30T08:21:37;101942.91;;;5.97;100.00
51359;BME280;37448;51.588;7.248;2024-01-30T08:23:38;101940.63;;;6.12;100.00
51359;BME280;37448;51.588;7.248;2024-01-30T08:25:39;101939.84;;;6.16;100.00
51359;BME280;37448;51.588;7.248;2024-01-30T08:27:41;101940.00;;;6.23;100.00
51359;BME280;37448;51.588;7.248;2024-01-30T08:29:41;101945.44;;;6.35;100.00
51359;BME280;37448;51.588;7.248;2024-01-30T08:31:41;101942.13;;;6.42;100.00
51359;BME280;37448;51.588;7.248;2024-01-30T08:33:42;101940.59;;;6.52;100.00
51359;BME280;37448;51.588;7.248;2024-01-30T08:35:42;101940.66;;;6.54;100.00
51359;BME280;37448;51.588;7.248;2024-01-30T08:37:43;101951.13;;;6.60;100.00
51359;BME280;37448;51.588;7.248;2024-01-30T08:39:44;101946.94;;;6.67;100.00
51359;BME280;37448;51.588;7.248;2024-01-30T08:41:44;101955.69;;;6.72;100.00
51359;BME280;37448;51.588;7.248;2024-01-30T08:43:45;101951.38;;;6.72;100.00
51359;BME280;37448;51.588;7.248;2024-01-30T08:45:45;101952.25;;;6.73;100.00
51359;BME280;37448;51.588;7.248;2024-01-30T08:47:45;101947.19;;;6.79;100.00
51359;BME280;37448;51.588;7.248;2024-01-30T08:49:46;101941.97;;;6.78;100.00
51359;BME280;37448;51.588;7.248;2024-01-30T08:51:46;101937.69;;;6.80;100.00
51359;BME280;37448;51.588;7.248;2024-01-30T08:53:47;101941.19;;;6.82;100.00
51359;BME280;37448;51.588;7.248;2024-01-30T08:55:48;101942.94;;;6.83;100.00
51359;BME280;37448;51.588;7.248;2024-01-30T08:57:48;101951.59;;;6.85;100.00
51359;BME280;37448;51.588;7.248;2024-01-30T08:59:48;101955.94;;;6.86;100.00
51359;BME280;37448;51.588;7.248;2024-01-30T09:01:49;101945.56;;;6.86;100.00
51359;BME280;37448;51.588;7.248;2024-01-30T09:03:49;101948.22;;;6.87;100.00
51359;BME280;37448;51.588;7.248;2024-01-30T09:05:49;101951.81;;;6.94;100.00
51359;BME280;37448;51.588;7.248;2024-01-30T09:07:50;101950.94;;;6.95;100.00
51359;BME280;37448;51.588;7.248;2024-01-30T09:09:50;101955.28;;;6.96;100.00
51359;BME280;37448;51.588;7.248;2024-01-30T09:11:51;101953.69;;;7.01;100.00
51359;BME280;37448;51.588;7.248;2024-01-30T09:13:51;101952.78;;;7.01;100.00
51359;BME280;37448;51.588;7.248;2024-01-30T09:15:52;101953.84;;;7.09;100.00
51359;BME280;37448;51.588;7.248;2024-01-30T09:17:52;101963.34;;;7.10;100.00
51359;BME280;37448;51.588;7.248;2024-01-30T09:19:53;101965.19;;;7.16;100.00
51359;BME280;37448;51.588;7.248;2024-01-30T09:21:53;101965.25;;;7.19;100.00
51359;BME280;37448;51.588;7.248;2024-01-30T09:23:54;101964.50;;;7.26;100.00
51359;BME280;37448;51.588;7.248;2024-01-30T09:25:55;101968.03;;;7.31;100.00
51359;BME280;37448;51.588;7.248;2024-01-30T09:27:55;101975.03;;;7.36;100.00
51359;BME280;37448;51.588;7.248;2024-01-30T09:29:56;101969.84;;;7.36;100.00
51359;BME280;37448;51.588;7.248;2024-01-30T09:31:56;101970.03;;;7.45;100.00
51359;BME280;37448;51.588;7.248;2024-01-30T09:33:56;101973.66;;;7.55;100.00
51359;BME280;37448;51.588;7.248;2024-01-30T09:35:57;101980.72;;;7.64;100.00
51359;BME280;37448;51.588;7.248;2024-01-30T09:37:57;101984.09;;;7.59;100.00
51359;BME280;37448;51.588;7.248;2024-01-30T09:39:58;101985.94;;;7.67;100.00
51359;BME280;37448;51.588;7.248;2024-01-30T09:42:56;101985.97;;;7.68;100.00
51359;BME280;37448;51.588;7.248;2024-01-30T09:44:38;101984.31;;;7.73;100.00
51359;BME280;37448;51.588;7.248;2024-01-30T09:46:38;101988.81;;;7.84;100.00
51359;BME280;37448;51.588;7.248;2024-01-30T09:48:41;101981.88;;;7.84;100.00
51359;BME280;37448;51.588;7.248;2024-01-30T09:50:43;101970.63;;;7.85;100.00
51359;BME280;37448;51.588;7.248;2024-01-30T09:52:45;101980.22;;;7.88;100.00
51359;BME280;37448;51.588;7.248;2024-01-30T09:54:47;101980.34;;;7.96;100.00
51359;BME280;37448;51.588;7.248;2024-01-30T09:56:49;101972.63;;;8.00;100.00
51359;BME280;37448;51.588;7.248;2024-01-30T09:58:50;101963.13;;;8.02;100.00
51359;BME280;37448;51.588;7.248;2024-01-30T10:00:50;101971.06;;;8.13;100.00
51359;BME280;37448;51.588;7.248;2024-01-30T10:02:50;101969.41;;;8.18;100.00
51359;BME280;37448;51.588;7.248;2024-01-30T10:04:51;101976.53;;;8.35;98.61
51359;BME280;37448;51.588;7.248;2024-01-30T10:06:52;101967.97;;;8.42;98.59
51359;BME280;37448;51.588;7.248;2024-01-30T10:08:53;101968.09;;;8.52;98.81
51359;BME280;37448;51.588;7.248;2024-01-30T10:10:53;101975.19;;;8.67;97.93
51359;BME280;37448;51.588;7.248;2024-01-30T10:12:53;101977.03;;;8.75;98.18
51359;BME280;37448;51.588;7.248;2024-01-30T10:14:56;101976.28;;;8.84;97.57
51359;BME280;37448;51.588;7.248;2024-01-30T10:16:57;101972.06;;;8.97;97.50
51359;BME280;37448;51.588;7.248;2024-01-30T10:18:57;101979.13;;;9.09;95.51
51359;BME280;37448;51.588;7.248;2024-01-30T10:20:58;101968.72;;;9.09;97.34
51359;BME280;37448;51.588;7.248;2024-01-30T10:22:59;101970.63;;;9.26;96.09
51359;BME280;37448;51.588;7.248;2024-01-30T10:25:00;101970.13;;;9.67;95.30
51359;BME280;37448;51.588;7.248;2024-01-30T10:27:00;101964.34;;;10.12;92.90
51359;BME280;37448;51.588;7.248;2024-01-30T10:29:01;101973.19;;;10.37;93.40
51359;BME280;37448;51.588;7.248;2024-01-30T10:31:02;101978.41;;;10.43;90.86